createdAt,value
2022-10-11T00:00:58.117Z,8.32
2022-10-11T00:03:26.045Z,8.18
2022-10-11T00:05:54.406Z,7.53
2022-10-11T00:08:22.789Z,6.28
2022-10-11T00:11:06.225Z,8.10
2022-10-11T00:13:34.736Z,8.05
2022-10-11T00:16:09.256Z,10.75
2022-10-11T00:18:37.483Z,11.40
2022-10-11T00:21:10.537Z,8.63
2022-10-11T00:23:39.261Z,15.50
2022-10-11T00:26:10.208Z,9.88
2022-10-11T00:28:38.551Z,12.85
2022-10-11T00:31:18.708Z,12.23
2022-10-11T00:33:46.948Z,10.50
2022-10-11T00:36:17.505Z,14.63
2022-10-11T00:38:47.471Z,16.70
2022-10-11T00:41:16.547Z,13.73
2022-10-11T00:43:45.237Z,11.00
2022-10-11T00:46:18.958Z,17.17
2022-10-11T00:51:52.480Z,12.10
2022-10-11T00:54:25.968Z,16.45
2022-10-11T00:57:00.453Z,17.98
2022-10-11T00:59:35.161Z,16.70
2022-10-11T01:02:05.149Z,14.93
2022-10-11T01:04:34.265Z,15.55
2022-10-11T01:07:03.123Z,16.25
2022-10-11T01:09:31.227Z,17.65
2022-10-11T01:12:02.267Z,17.48
2022-10-11T01:15:22.858Z,20.23
2022-10-11T01:18:33.992Z,15.45
2022-10-11T01:21:49.941Z,18.20
2022-10-11T01:24:41.723Z,21.63
2022-10-11T01:27:36.738Z,20.70
2022-10-11T01:30:23.258Z,21.38
2022-10-11T01:33:17.968Z,26.20
2022-10-11T01:36:14.176Z,26.13
2022-10-11T01:38:53.950Z,28.80
2022-10-11T01:41:34.492Z,19.50
2022-10-11T01:44:03.683Z,22.85
2022-10-11T01:46:33.063Z,17.40
2022-10-11T01:49:02.487Z,19.75
2022-10-11T01:51:45.213Z,21.80
2022-10-11T01:55:08.506Z,19.50
2022-10-11T01:57:58.356Z,18.27
2022-10-11T02:00:46.691Z,23.02
2022-10-11T02:03:31.965Z,21.02
2022-10-11T02:06:23.205Z,23.55
2022-10-11T02:08:53.860Z,18.52
2022-10-11T02:11:31.625Z,27.23
2022-10-11T02:14:13.223Z,21.10
2022-10-11T02:16:57.607Z,22.00
2022-10-11T02:19:32.919Z,22.25
2022-10-11T02:22:08.355Z,24.73
2022-10-11T02:24:41.519Z,27.02
2022-10-11T02:27:12.577Z,27.75
2022-10-11T02:29:43.842Z,20.80
2022-10-11T02:32:13.744Z,24.55
2022-10-11T02:35:02.826Z,23.25
2022-10-11T02:38:01.720Z,23.35
2022-10-11T02:40:45.213Z,23.75
2022-10-11T02:43:37.020Z,26.52
2022-10-11T02:46:08.072Z,21.48
2022-10-11T02:48:37.460Z,25.52
2022-10-11T02:51:05.580Z,24.67
2022-10-11T02:53:33.687Z,21.17
2022-10-11T02:56:01.556Z,23.83
2022-10-11T02:58:29.480Z,27.23
2022-10-11T03:00:57.221Z,28.75
2022-10-11T03:03:24.953Z,24.17
2022-10-11T03:06:02.584Z,23.02
2022-10-11T03:08:31.075Z,22.42
2022-10-11T03:10:58.889Z,28.77
2022-10-11T03:13:26.672Z,27.02
2022-10-11T03:16:07.268Z,25.45
2022-10-11T03:18:35.334Z,24.50
2022-10-11T03:21:03.304Z,27.92
2022-10-11T03:23:31.044Z,28.90
2022-10-11T03:25:58.819Z,23.52
2022-10-11T03:28:27.063Z,27.13
2022-10-11T03:30:54.899Z,29.42
2022-10-11T03:33:22.676Z,28.27
2022-10-11T03:35:50.643Z,25.77
2022-10-11T03:38:21.921Z,27.52
2022-10-11T03:40:50.136Z,26.20
2022-10-11T03:43:18.207Z,27.33
2022-10-11T03:45:45.987Z,30.23
2022-10-11T03:48:13.758Z,29.02
2022-10-11T03:50:41.515Z,29.23
2022-10-11T03:53:09.609Z,30.42
2022-10-11T03:55:42.928Z,27.95
2022-10-11T03:58:10.709Z,30.20
2022-10-11T04:00:39.666Z,25.35
2022-10-11T04:03:07.494Z,32.58
2022-10-11T04:05:35.247Z,32.92
2022-10-11T04:08:05.433Z,29.92
2022-10-11T04:10:36.231Z,31.90
2022-10-11T04:13:04.002Z,30.27
2022-10-11T04:15:31.811Z,31.70
2022-10-11T04:17:59.661Z,31.38
2022-10-11T04:20:27.466Z,34.30
2022-10-11T04:22:55.268Z,32.70
2022-10-11T04:25:23.018Z,32.88
2022-10-11T04:27:50.979Z,30.27
2022-10-11T04:30:19.231Z,28.38
2022-10-11T04:32:47.094Z,35.13
2022-10-11T04:35:15.002Z,31.88
2022-10-11T04:37:42.761Z,31.30
2022-10-11T04:40:11.713Z,28.38
2022-10-11T04:42:39.515Z,33.13
2022-10-11T04:45:09.410Z,28.50
2022-10-11T04:47:37.362Z,29.95
2022-10-11T04:50:06.384Z,31.33
2022-10-11T04:52:34.175Z,29.35
2022-10-11T04:55:01.976Z,27.73
2022-10-11T04:57:29.811Z,28.00
2022-10-11T04:59:57.578Z,24.75
2022-10-11T05:02:25.369Z,28.67
2022-10-11T05:04:53.159Z,27.25
2022-10-11T05:07:21.157Z,27.27
2022-10-11T05:09:48.891Z,32.75
2022-10-11T05:12:16.623Z,33.35
2022-10-11T05:14:45.536Z,26.70
2022-10-11T05:17:13.397Z,27.60
2022-10-11T05:19:41.208Z,31.73
2022-10-11T05:22:09.119Z,30.98
2022-10-11T05:24:37.843Z,29.10
2022-10-11T05:27:05.596Z,30.58
2022-10-11T05:29:33.331Z,28.17
2022-10-11T05:32:01.143Z,29.15
2022-10-11T05:34:29.042Z,33.97
2022-10-11T05:36:57.239Z,31.63
2022-10-11T05:39:25.067Z,30.42
2022-10-11T05:41:52.882Z,26.70
2022-10-11T05:44:20.640Z,30.38
2022-10-11T05:46:48.411Z,34.50
2022-10-11T05:49:16.188Z,33.33
2022-10-11T05:51:44.086Z,29.85
2022-10-11T05:54:11.875Z,32.17
2022-10-11T05:56:39.680Z,33.60
2022-10-11T05:59:07.456Z,31.45
2022-10-11T06:01:35.489Z,33.55
2022-10-11T06:04:04.885Z,32.78
2022-10-11T06:06:32.652Z,31.23
2022-10-11T06:09:00.391Z,33.38
2022-10-11T06:11:28.694Z,32.97
2022-10-11T06:13:58.309Z,30.33
2022-10-11T06:16:26.603Z,32.75
2022-10-11T06:18:56.190Z,30.95
2022-10-11T06:21:25.104Z,27.08
2022-10-11T06:23:58.326Z,29.00
2022-10-11T06:26:29.477Z,35.00
2022-10-11T06:28:58.990Z,26.90
2022-10-11T06:31:26.933Z,30.92
2022-10-11T06:33:54.671Z,31.08
2022-10-11T06:36:22.704Z,31.17
2022-10-11T06:38:55.181Z,28.85
2022-10-11T06:41:30.251Z,30.98
2022-10-11T06:43:58.263Z,29.08
2022-10-11T06:46:28.391Z,27.58
2022-10-11T06:48:56.560Z,27.52
2022-10-11T06:51:25.388Z,24.33
2022-10-11T06:53:57.785Z,24.05
2022-10-11T06:56:27.773Z,19.70
2022-10-11T06:58:57.167Z,26.63
2022-10-11T07:01:25.594Z,26.15
2022-10-11T07:03:55.843Z,26.30
2022-10-11T07:06:28.726Z,26.15
2022-10-11T07:08:56.544Z,22.65
2022-10-11T07:11:27.466Z,21.90
2022-10-11T07:13:58.807Z,21.83
2022-10-11T07:16:28.549Z,24.85
2022-10-11T07:19:00.716Z,22.05
2022-10-11T07:21:31.018Z,24.95
2022-10-11T07:23:59.301Z,26.73
2022-10-11T07:26:28.283Z,21.17
2022-10-11T07:28:56.423Z,29.42
2022-10-11T07:31:26.453Z,22.60
2022-10-11T07:33:54.676Z,22.15
2022-10-11T07:36:23.473Z,20.67
2022-10-11T07:38:51.795Z,21.67
2022-10-11T07:41:19.865Z,17.90
2022-10-11T07:43:49.688Z,25.45
2022-10-11T07:46:18.793Z,19.75
2022-10-11T07:48:46.828Z,21.48
2022-10-11T07:51:21.791Z,22.13
2022-10-11T07:53:53.911Z,22.73
2022-10-11T07:56:29.437Z,21.83
2022-10-11T07:59:01.048Z,22.30
2022-10-11T08:01:31.386Z,18.50
2022-10-11T08:03:59.655Z,18.88
2022-10-11T08:06:32.672Z,21.20
2022-10-11T08:09:02.601Z,20.27
2022-10-11T08:11:36.678Z,24.55
2022-10-11T08:14:09.182Z,20.65
2022-10-11T08:16:40.742Z,29.38
2022-10-11T08:19:08.516Z,22.08
2022-10-11T08:21:36.752Z,25.35
2022-10-11T08:24:06.476Z,23.20
2022-10-11T08:26:34.557Z,21.00
2022-10-11T08:29:03.483Z,23.40
2022-10-11T08:31:32.624Z,20.65
2022-10-11T08:34:00.714Z,19.10
2022-10-11T08:36:28.491Z,22.20
2022-10-11T08:38:56.215Z,25.98
2022-10-11T08:41:38.927Z,28.20
2022-10-11T08:44:46.122Z,20.98
2022-10-11T08:47:47.318Z,25.77
2022-10-11T08:50:22.303Z,20.63
2022-10-11T08:53:13.403Z,20.30
2022-10-11T08:55:49.553Z,24.67
2022-10-11T08:58:29.227Z,19.58
2022-10-11T09:00:57.975Z,25.48
2022-10-11T09:03:47.202Z,20.10
2022-10-11T09:06:54.907Z,30.05
2022-10-11T09:09:25.317Z,20.27
2022-10-11T09:12:05.649Z,19.52
2022-10-11T09:14:44.971Z,18.25
2022-10-11T09:17:22.645Z,23.90
2022-10-11T09:20:33.133Z,23.30
2022-10-11T09:23:08.290Z,24.45
2022-10-11T09:25:55.820Z,21.27
2022-10-11T09:29:25.245Z,19.35
2022-10-11T09:31:57.128Z,18.95
2022-10-11T09:34:32.425Z,25.42
2022-10-11T09:37:42.467Z,21.17
2022-10-11T09:40:10.642Z,21.15
2022-10-11T09:42:38.370Z,20.80
2022-10-11T09:45:18.437Z,29.15
2022-10-11T09:47:46.486Z,25.20
2022-10-11T09:50:20.830Z,20.70
2022-10-11T09:52:51.322Z,21.05
2022-10-11T09:55:44.974Z,18.95
2022-10-11T09:58:35.353Z,19.98
2022-10-11T10:01:09.501Z,22.58
2022-10-11T10:03:44.398Z,18.45
2022-10-11T10:06:26.195Z,16.92
2022-10-11T10:08:55.214Z,18.55
2022-10-11T10:11:23.079Z,15.85
2022-10-11T10:13:57.195Z,19.77
2022-10-11T10:16:32.886Z,14.10
2022-10-11T10:19:14.216Z,17.80
2022-10-11T10:21:53.780Z,17.70
2022-10-11T10:24:42.718Z,15.48
2022-10-11T10:27:30.798Z,14.63
2022-10-11T10:30:14.508Z,13.23
2022-10-11T10:33:06.031Z,18.45
2022-10-11T10:35:45.589Z,14.90
2022-10-11T10:38:35.484Z,19.00
2022-10-11T10:41:10.799Z,26.70
2022-10-11T10:43:42.920Z,11.27
2022-10-11T10:46:46.968Z,16.58
2022-10-11T10:52:41.815Z,14.65
2022-10-11T10:55:39.870Z,18.38
2022-10-11T10:58:54.524Z,15.63
2022-10-11T11:01:39.133Z,18.20
2022-10-11T11:04:35.258Z,15.82
2022-10-11T11:07:21.912Z,13.25
2022-10-11T11:10:17.223Z,12.55
2022-10-11T11:12:50.379Z,12.32
2022-10-11T11:15:37.768Z,13.48
2022-10-11T11:18:30.010Z,17.65
2022-10-11T11:21:28.097Z,16.52
2022-10-11T11:24:24.501Z,12.20
2022-10-11T11:27:29.827Z,15.63
2022-10-11T11:30:09.745Z,13.68
2022-10-11T11:33:11.003Z,12.90
2022-10-11T11:35:48.538Z,10.85
2022-10-11T11:38:46.773Z,15.45
2022-10-11T11:41:30.833Z,14.50
2022-10-11T11:44:33.504Z,15.52
2022-10-11T11:47:05.663Z,13.50
2022-10-11T11:52:35.908Z,16.20
2022-10-11T11:55:28.687Z,13.18
2022-10-11T11:58:34.160Z,14.43
2022-10-11T12:01:31.547Z,14.40
2022-10-11T12:04:50.171Z,12.60
2022-10-11T12:07:23.570Z,14.75
2022-10-11T12:10:24.954Z,18.83
2022-10-11T12:13:17.254Z,14.10
2022-10-11T12:16:14.194Z,12.65
2022-10-11T12:18:57.865Z,14.57
2022-10-11T12:21:44.335Z,14.63
2022-10-11T12:24:24.343Z,11.75
2022-10-11T12:26:57.881Z,13.23
2022-10-11T12:29:49.694Z,18.15
2022-10-11T12:32:36.023Z,14.77
2022-10-11T12:35:31.846Z,13.13
2022-10-11T12:38:23.610Z,13.23
2022-10-11T12:41:19.947Z,11.60
2022-10-11T12:43:47.545Z,19.48
2022-10-11T12:46:50.410Z,13.52
2022-10-11T12:50:01.040Z,13.88
2022-10-11T12:52:41.646Z,18.40
2022-10-11T12:55:30.434Z,13.98
2022-10-11T12:58:24.177Z,16.48
2022-10-11T13:00:51.889Z,11.52
2022-10-11T13:03:43.474Z,12.40
2022-10-11T13:06:38.251Z,18.65
2022-10-11T13:09:24.835Z,13.70
2022-10-11T13:12:14.075Z,12.93
2022-10-11T13:15:03.919Z,16.42
2022-10-11T13:17:38.620Z,18.33
2022-10-11T13:20:17.373Z,10.25
2022-10-11T13:22:51.174Z,12.65
2022-10-11T13:25:45.424Z,14.38
2022-10-11T13:30:50.891Z,14.98
2022-10-11T13:33:32.298Z,12.45
2022-10-11T13:36:02.972Z,12.93
2022-10-11T13:38:35.031Z,12.30
2022-10-11T13:41:10.314Z,15.45
2022-10-11T13:43:38.835Z,13.82
2022-10-11T13:46:23.693Z,15.50
2022-10-11T13:49:03.595Z,14.93
2022-10-11T13:51:38.354Z,11.98
2022-10-11T13:54:13.638Z,13.63
2022-10-11T13:56:49.913Z,13.77
2022-10-11T13:59:28.150Z,15.85
2022-10-11T14:02:01.908Z,14.32
2022-10-11T14:04:41.234Z,12.90
2022-10-11T14:07:24.772Z,62.88
2022-10-11T14:09:53.359Z,55.10
2022-10-11T14:12:39.747Z,29.35
2022-10-11T14:15:35.633Z,21.33
2022-10-11T14:18:42.825Z,14.15
2022-10-11T14:21:19.955Z,15.15
2022-10-11T14:24:12.571Z,14.68
2022-10-11T14:26:44.302Z,14.73
2022-10-11T14:29:23.947Z,11.30
2022-10-11T14:31:55.984Z,14.52
2022-10-11T14:34:25.792Z,12.13
2022-10-11T14:36:53.916Z,14.20
2022-10-11T14:39:26.311Z,13.95
2022-10-11T14:41:54.856Z,14.73
2022-10-11T14:44:23.542Z,13.63
2022-10-11T14:46:54.583Z,17.42
2022-10-11T14:49:27.096Z,14.88
2022-10-11T14:51:58.239Z,12.88
2022-10-11T14:54:28.920Z,12.32
2022-10-11T14:56:59.753Z,14.65
2022-10-11T14:59:34.570Z,16.15
2022-10-11T15:02:05.109Z,16.08
2022-10-11T15:04:33.377Z,15.13
2022-10-11T15:07:01.656Z,12.43
2022-10-11T15:09:30.151Z,17.42
2022-10-11T15:11:58.403Z,12.68
2022-10-11T15:14:26.675Z,15.27
2022-10-11T15:16:56.166Z,14.55
2022-10-11T15:19:25.447Z,12.85
2022-10-11T15:21:53.474Z,14.98
2022-10-11T15:24:21.326Z,17.50
2022-10-11T15:26:49.649Z,13.70
2022-10-11T15:29:18.061Z,15.05
2022-10-11T15:31:46.627Z,14.00
2022-10-11T15:34:14.542Z,16.30
2022-10-11T15:36:42.828Z,15.52
2022-10-11T15:39:28.614Z,13.50
2022-10-11T15:41:57.675Z,15.27
2022-10-11T15:44:26.205Z,15.20
2022-10-11T15:46:53.978Z,14.00
2022-10-11T15:49:21.896Z,12.90
2022-10-11T15:51:49.654Z,14.43
2022-10-11T15:54:17.377Z,17.45
2022-10-11T15:56:45.135Z,16.35
2022-10-11T15:59:13.050Z,17.58
2022-10-11T16:01:40.945Z,13.77
2022-10-11T16:04:09.521Z,15.60
2022-10-11T16:06:37.279Z,14.07
2022-10-11T16:09:05.171Z,14.93
2022-10-11T16:11:33.120Z,14.80
2022-10-11T16:14:00.843Z,14.18
2022-10-11T16:16:28.643Z,12.70
2022-10-11T16:18:56.628Z,14.32
2022-10-11T16:21:24.375Z,13.15
2022-10-11T16:23:52.182Z,18.63
2022-10-11T16:26:20.559Z,14.80
2022-10-11T16:28:48.601Z,18.60
2022-10-11T16:31:20.691Z,20.73
2022-10-11T16:33:50.188Z,18.80
2022-10-11T16:36:36.953Z,19.67
2022-10-11T16:39:18.293Z,14.63
2022-10-11T16:41:46.943Z,16.05
2022-10-11T16:44:19.306Z,15.30
2022-10-11T16:46:48.749Z,21.75
2022-10-11T16:49:19.629Z,26.50
2022-10-11T16:51:47.496Z,21.27
2022-10-11T16:54:20.045Z,41.80
2022-10-11T16:56:50.254Z,37.90
2022-10-11T16:59:18.076Z,27.45
2022-10-11T17:01:46.302Z,71.78
2022-10-11T17:04:14.852Z,71.50
2022-10-11T17:06:44.045Z,38.40
2022-10-11T17:09:12.181Z,31.40
2022-10-11T17:11:40.832Z,34.33
2022-10-11T17:14:10.290Z,34.38
2022-10-11T17:16:38.207Z,24.33
2022-10-11T17:19:13.841Z,29.65
2022-10-11T17:21:42.096Z,31.13
2022-10-11T17:24:10.006Z,60.90
2022-10-11T17:26:37.776Z,29.45
2022-10-11T17:29:05.657Z,23.30
2022-10-11T17:31:33.711Z,19.63
2022-10-11T17:34:01.566Z,20.52
2022-10-11T17:36:34.357Z,16.13
2022-10-11T17:39:07.153Z,18.17
2022-10-11T17:41:35.469Z,19.77
2022-10-11T17:44:03.587Z,18.98
2022-10-11T17:46:34.485Z,15.32
2022-10-11T17:49:05.000Z,14.35
2022-10-11T17:51:34.206Z,18.30
2022-10-11T17:54:02.063Z,18.10
2022-10-11T17:56:35.051Z,23.00
2022-10-11T17:59:04.545Z,24.75
2022-10-11T18:01:32.326Z,19.80
2022-10-11T18:04:04.248Z,17.05
2022-10-11T18:06:39.068Z,18.48
2022-10-11T18:09:06.945Z,21.75
2022-10-11T18:11:35.255Z,23.33
2022-10-11T18:14:04.533Z,23.17
2022-10-11T18:16:32.996Z,20.00
2022-10-11T18:19:05.274Z,19.23
2022-10-11T18:21:34.945Z,20.38
2022-10-11T18:24:07.882Z,19.02
2022-10-11T18:26:35.648Z,16.33
2022-10-11T18:29:04.932Z,14.95
2022-10-11T18:31:36.629Z,17.10
2022-10-11T18:34:06.186Z,15.13
2022-10-11T18:36:34.359Z,19.50
2022-10-11T18:39:08.106Z,14.80
2022-10-11T18:44:08.703Z,20.67
2022-10-11T18:46:36.900Z,20.83
2022-10-11T18:49:04.841Z,19.83
2022-10-11T18:51:37.016Z,28.80
2022-10-11T18:54:07.633Z,19.50
2022-10-11T18:56:37.058Z,17.63
2022-10-11T18:59:06.466Z,24.08
2022-10-11T19:01:38.740Z,26.50
2022-10-11T19:04:09.869Z,18.08
2022-10-11T19:06:44.592Z,17.95
2022-10-11T19:09:21.704Z,18.77
2022-10-11T19:11:52.486Z,19.63
2022-10-11T19:14:23.280Z,19.05
2022-10-11T19:16:52.560Z,19.13
2022-10-11T19:19:28.933Z,18.38
2022-10-11T19:21:57.209Z,17.30
2022-10-11T19:24:28.310Z,19.17
2022-10-11T19:27:02.022Z,17.80
2022-10-11T19:29:31.507Z,17.20
2022-10-11T19:32:03.582Z,17.77
2022-10-11T19:34:32.732Z,17.20
2022-10-11T19:37:04.183Z,19.98
2022-10-11T19:39:32.227Z,18.02
2022-10-11T19:42:00.885Z,23.40
2022-10-11T19:44:28.698Z,14.30
2022-10-11T19:46:58.307Z,17.73
2022-10-11T19:49:28.113Z,18.42
2022-10-11T19:51:55.937Z,17.35
2022-10-11T19:54:24.424Z,25.58
2022-10-11T19:56:52.572Z,19.48
2022-10-11T19:59:20.430Z,19.33
2022-10-11T20:01:52.700Z,20.30
2022-10-11T20:04:50.969Z,20.40
2022-10-11T20:07:08.744Z,20.35
2022-10-11T20:09:36.753Z,20.20
2022-10-11T20:12:04.697Z,15.60
2022-10-11T20:14:32.515Z,15.68
2022-10-11T20:17:00.255Z,18.27
2022-10-11T20:19:31.389Z,17.33
2022-10-11T20:22:01.230Z,20.92
2022-10-11T20:24:33.478Z,16.73
2022-10-11T20:27:04.338Z,18.87
2022-10-11T20:29:32.191Z,13.35
2022-10-11T20:32:00.164Z,18.77
2022-10-11T20:34:28.339Z,14.57
2022-10-11T20:36:56.082Z,20.63
2022-10-11T20:39:24.056Z,21.23
2022-10-11T20:41:51.813Z,20.00
2022-10-11T20:44:19.609Z,19.90
2022-10-11T20:46:47.337Z,19.67
2022-10-11T20:49:15.155Z,18.08
2022-10-11T20:51:43.417Z,18.65
2022-10-11T20:54:12.858Z,15.63
2022-10-11T20:56:40.875Z,18.05
2022-10-11T20:59:10.121Z,16.45
2022-10-11T21:01:40.982Z,17.30
2022-10-11T21:04:18.087Z,18.15
2022-10-11T21:06:47.955Z,20.55
2022-10-11T21:09:16.960Z,17.20
2022-10-11T21:11:45.011Z,19.23
2022-10-11T21:14:13.246Z,17.60
2022-10-11T21:16:41.029Z,16.83
2022-10-11T21:19:14.490Z,17.15
2022-10-11T21:21:42.745Z,16.20
2022-10-11T21:24:10.718Z,17.33
2022-10-11T21:26:38.765Z,15.40
2022-10-11T21:29:07.567Z,21.70
2022-10-11T21:31:35.703Z,13.88
2022-10-11T21:34:05.189Z,21.65
2022-10-11T21:36:33.123Z,16.48
2022-10-11T21:39:00.992Z,17.58
2022-10-11T21:41:32.138Z,17.85
2022-10-11T21:44:00.240Z,22.23
2022-10-11T21:49:19.818Z,15.63
2022-10-11T21:51:47.591Z,17.77
2022-10-11T21:54:15.680Z,16.33
2022-10-11T21:56:43.518Z,13.35
2022-10-11T21:59:12.768Z,16.65
2022-10-11T22:01:42.723Z,14.15
2022-10-11T22:04:11.969Z,18.20
2022-10-11T22:06:40.203Z,15.00
2022-10-11T22:09:08.986Z,16.98
2022-10-11T22:11:37.285Z,15.32
2022-10-11T22:14:05.430Z,17.65
2022-10-11T22:16:34.702Z,14.50
2022-10-11T22:19:02.815Z,18.13
2022-10-11T22:21:31.160Z,16.58
2022-10-11T22:23:59.107Z,16.38
2022-10-11T22:26:30.833Z,15.30
2022-10-11T22:29:00.323Z,17.05
2022-10-11T22:31:29.260Z,17.75
2022-10-11T22:34:00.490Z,14.20
2022-10-11T22:36:33.802Z,19.90
2022-10-11T22:39:02.791Z,17.52
2022-10-11T22:41:30.507Z,14.65
2022-10-11T22:43:58.267Z,16.13
2022-10-11T22:46:26.007Z,15.25
2022-10-11T22:48:53.793Z,18.45
2022-10-11T22:51:21.614Z,23.73
2022-10-11T22:53:49.450Z,15.80
2022-10-11T22:56:17.227Z,15.85
2022-10-11T22:58:45.502Z,18.63
2022-10-11T23:01:18.340Z,14.63
2022-10-11T23:03:50.688Z,19.73
2022-10-11T23:06:18.826Z,18.88
2022-10-11T23:08:46.607Z,16.52
2022-10-11T23:11:14.611Z,18.20
2022-10-11T23:13:42.345Z,17.60
2022-10-11T23:16:12.328Z,19.15
2022-10-11T23:18:40.380Z,17.95
2022-10-11T23:21:08.763Z,17.38
2022-10-11T23:23:36.641Z,15.52
2022-10-11T23:26:11.123Z,17.20
2022-10-11T23:28:40.128Z,15.88
2022-10-11T23:31:14.330Z,16.58
2022-10-11T23:33:43.823Z,17.48
2022-10-11T23:36:24.487Z,21.15
2022-10-11T23:38:54.889Z,16.73
2022-10-11T23:41:29.411Z,16.55
2022-10-11T23:43:58.087Z,15.88
2022-10-11T23:46:25.843Z,21.70
2022-10-11T23:48:53.599Z,15.32
2022-10-11T23:51:21.409Z,15.43
2022-10-11T23:53:49.250Z,16.98
2022-10-11T23:56:17.046Z,20.77
2022-10-11T23:58:44.816Z,18.35
